createdAt,value
2022-08-04T00:00:01.860Z,23.12
2022-08-04T00:03:03.601Z,23.03
2022-08-04T00:05:55.140Z,22.92
2022-08-04T00:08:32.151Z,22.89
2022-08-04T00:11:00.755Z,18.92
2022-08-04T00:13:31.589Z,20.44
2022-08-04T00:16:02.284Z,20.88
2022-08-04T00:18:43.190Z,22.66
2022-08-04T00:21:14.696Z,21.27
2022-08-04T00:24:10.889Z,20.48
2022-08-04T00:26:34.137Z,22.46
2022-08-04T00:29:02.263Z,21.06
2022-08-04T00:31:52.081Z,22.41
2022-08-04T00:34:19.118Z,22.40
2022-08-04T00:36:47.508Z,22.37
2022-08-04T00:39:16.520Z,21.19
2022-08-04T00:42:13.103Z,22.33
2022-08-04T00:45:06.481Z,22.37
2022-08-04T00:47:38.993Z,22.31
2022-08-04T00:50:09.647Z,18.37
2022-08-04T00:52:45.486Z,20.30
2022-08-04T00:55:27.692Z,22.21
2022-08-04T00:58:35.679Z,22.16
2022-08-04T01:01:05.758Z,20.81
2022-08-04T01:03:54.756Z,22.04
2022-08-04T01:06:28.280Z,20.44
2022-08-04T01:09:05.886Z,21.95
2022-08-04T01:11:56.466Z,21.87
2022-08-04T01:14:55.182Z,21.83
2022-08-04T01:17:46.118Z,20.69
2022-08-04T01:20:18.531Z,19.85
2022-08-04T01:23:20.996Z,21.64
2022-08-04T01:26:42.568Z,21.58
2022-08-04T01:29:08.745Z,21.55
2022-08-04T01:31:42.437Z,21.56
2022-08-04T01:34:13.053Z,21.47
2022-08-04T01:36:49.962Z,20.05
2022-08-04T01:39:36.804Z,19.22
2022-08-04T01:42:04.829Z,20.16
2022-08-04T01:44:36.518Z,16.49
2022-08-04T01:47:04.174Z,20.12
2022-08-04T01:49:40.548Z,20.14
2022-08-04T01:52:10.052Z,19.42
2022-08-04T01:54:42.181Z,18.39
2022-08-04T01:57:38.056Z,21.27
2022-08-04T02:00:01.962Z,20.64
2022-08-04T02:02:31.423Z,21.23
2022-08-04T02:04:58.701Z,19.16
2022-08-04T02:07:28.588Z,21.23
2022-08-04T02:10:06.364Z,21.24
2022-08-04T02:13:01.507Z,21.29
2022-08-04T02:15:46.597Z,19.41
2022-08-04T02:18:29.170Z,19.59
2022-08-04T02:21:01.939Z,19.30
2022-08-04T02:23:41.818Z,19.94
2022-08-04T02:26:22.133Z,21.33
2022-08-04T02:29:12.226Z,21.30
2022-08-04T02:31:47.573Z,18.51
2022-08-04T02:34:40.759Z,21.25
2022-08-04T02:37:09.604Z,18.00
2022-08-04T02:39:48.941Z,21.17
2022-08-04T02:42:17.515Z,20.16
2022-08-04T02:44:52.694Z,20.13
2022-08-04T02:47:22.238Z,20.68
2022-08-04T02:49:50.976Z,21.08
2022-08-04T02:52:19.778Z,21.10
2022-08-04T02:54:50.482Z,19.31
2022-08-04T02:57:19.110Z,21.02
2022-08-04T03:00:19.632Z,20.96
2022-08-04T03:03:06.300Z,20.97
2022-08-04T03:05:57.668Z,20.97
2022-08-04T03:08:43.908Z,20.40
2022-08-04T03:11:29.785Z,20.74
2022-08-04T03:14:12.103Z,20.95
2022-08-04T03:17:00.407Z,20.58
2022-08-04T03:19:46.037Z,20.88
2022-08-04T03:22:14.025Z,20.84
2022-08-04T03:25:23.088Z,20.80
2022-08-04T03:28:11.712Z,20.78
2022-08-04T03:30:50.620Z,20.75
2022-08-04T03:33:39.549Z,20.72
2022-08-04T03:36:45.955Z,20.29
2022-08-04T03:39:44.717Z,20.65
2022-08-04T03:42:30.769Z,20.62
2022-08-04T03:45:30.230Z,20.61
2022-08-04T03:48:09.360Z,20.56
2022-08-04T03:51:11.628Z,20.55
2022-08-04T03:54:04.581Z,20.50
2022-08-04T03:56:44.278Z,20.30
2022-08-04T03:59:28.049Z,20.47
2022-08-04T04:02:19.797Z,20.46
2022-08-04T04:05:18.574Z,17.84
2022-08-04T04:08:26.789Z,20.48
2022-08-04T04:11:27.974Z,20.48
2022-08-04T04:14:07.079Z,20.51
2022-08-04T04:16:43.054Z,20.56
2022-08-04T04:19:35.251Z,20.64
2022-08-04T04:22:34.297Z,20.01
2022-08-04T04:25:46.365Z,20.72
2022-08-04T04:28:43.718Z,20.54
2022-08-04T04:31:35.097Z,20.77
2022-08-04T04:34:08.049Z,20.80
2022-08-04T04:36:49.378Z,20.35
2022-08-04T04:39:46.829Z,20.94
2022-08-04T04:42:23.243Z,20.98
2022-08-04T04:45:09.298Z,21.04
2022-08-04T04:48:08.330Z,21.08
2022-08-04T04:50:48.078Z,21.04
2022-08-04T04:53:28.939Z,20.93
2022-08-04T04:56:36.047Z,21.36
2022-08-04T04:59:07.584Z,21.45
2022-08-04T05:02:03.137Z,20.24
2022-08-04T05:04:36.093Z,21.68
2022-08-04T05:07:53.053Z,21.28
2022-08-04T05:10:50.997Z,21.92
2022-08-04T05:14:38.862Z,22.08
2022-08-04T05:16:25.961Z,22.28
2022-08-04T05:19:07.619Z,21.43
2022-08-04T05:21:41.474Z,23.58
2022-08-04T05:24:11.091Z,24.57
2022-08-04T05:26:46.093Z,25.40
2022-08-04T05:29:22.449Z,25.52
2022-08-04T05:32:00.032Z,25.23
2022-08-04T05:34:34.193Z,26.52
2022-08-04T05:37:09.328Z,27.64
2022-08-04T05:39:44.019Z,27.52
2022-08-04T05:42:15.017Z,28.35
2022-08-04T05:44:46.332Z,28.62
2022-08-04T05:47:17.262Z,28.43
2022-08-04T05:49:44.924Z,27.62
2022-08-04T05:52:12.788Z,26.56
2022-08-04T05:54:40.493Z,28.57
2022-08-04T05:57:08.286Z,28.10
2022-08-04T05:59:38.770Z,30.39
2022-08-04T06:02:06.329Z,27.84
2022-08-04T06:04:38.739Z,30.74
2022-08-04T06:07:07.022Z,33.60
2022-08-04T06:09:36.369Z,30.17
2022-08-04T06:12:08.321Z,34.44
2022-08-04T06:14:46.108Z,33.41
2022-08-04T06:18:33.781Z,33.21
2022-08-04T06:20:19.609Z,36.29
2022-08-04T06:22:54.840Z,35.79
2022-08-04T06:25:26.409Z,36.69
2022-08-04T06:27:56.543Z,33.93
2022-08-04T06:30:27.060Z,35.75
2022-08-04T06:33:03.394Z,34.16
2022-08-04T06:35:33.003Z,32.72
2022-08-04T06:38:01.153Z,32.10
2022-08-04T06:40:33.221Z,29.97
2022-08-04T06:43:07.331Z,30.09
2022-08-04T06:45:37.934Z,29.01
2022-08-04T06:48:06.637Z,31.75
2022-08-04T06:51:27.049Z,32.29
2022-08-04T06:53:26.340Z,33.72
2022-08-04T06:55:54.558Z,34.11
2022-08-04T06:58:23.381Z,34.59
2022-08-04T07:00:51.332Z,31.84
2022-08-04T07:03:21.311Z,32.48
2022-08-04T07:05:49.078Z,33.90
2022-08-04T07:08:16.744Z,32.73
2022-08-04T07:10:46.466Z,33.37
2022-08-04T07:13:15.788Z,34.92
2022-08-04T07:15:45.870Z,34.37
2022-08-04T07:18:15.532Z,32.91
2022-08-04T07:20:47.091Z,34.77
2022-08-04T07:23:20.132Z,36.63
2022-08-04T07:26:11.916Z,36.18
2022-08-04T07:28:42.683Z,36.41
2022-08-04T07:31:32.477Z,36.89
2022-08-04T07:34:17.208Z,35.10
2022-08-04T07:36:53.092Z,36.94
2022-08-04T07:39:28.451Z,34.10
2022-08-04T07:41:58.451Z,34.42
2022-08-04T07:44:25.716Z,34.66
2022-08-04T07:46:55.378Z,36.71
2022-08-04T07:49:56.281Z,36.29
2022-08-04T07:52:11.404Z,36.70
2022-08-04T07:54:39.696Z,37.71
2022-08-04T07:57:07.031Z,36.45
2022-08-04T07:59:35.485Z,39.45
2022-08-04T08:02:02.926Z,37.38
2022-08-04T08:04:31.019Z,40.16
2022-08-04T08:07:00.933Z,40.63
2022-08-04T08:09:28.417Z,38.45
2022-08-04T08:12:38.718Z,39.94
2022-08-04T08:14:46.586Z,40.45
2022-08-04T08:17:14.248Z,41.78
2022-08-04T08:19:41.725Z,42.07
2022-08-04T08:22:11.738Z,39.03
2022-08-04T08:24:39.046Z,42.78
2022-08-04T08:27:07.131Z,41.68
2022-08-04T08:29:37.683Z,43.72
2022-08-04T08:32:08.675Z,43.13
2022-08-04T08:34:38.500Z,41.33
2022-08-04T08:37:24.449Z,44.99
2022-08-04T08:39:58.901Z,42.56
2022-08-04T08:42:38.171Z,44.73
2022-08-04T08:45:50.711Z,45.58
2022-08-04T08:48:42.310Z,46.00
2022-08-04T08:51:47.792Z,45.47
2022-08-04T08:54:47.317Z,45.33
2022-08-04T08:57:17.363Z,45.28
2022-08-04T09:00:10.505Z,45.03
2022-08-04T09:15:33.967Z,43.42
2022-08-04T09:18:00.977Z,42.71
2022-08-04T09:20:47.012Z,42.99
2022-08-04T09:23:29.243Z,42.70
2022-08-04T09:26:17.046Z,44.54
2022-08-04T09:28:54.710Z,44.33
2022-08-04T09:31:26.090Z,43.98
2022-08-04T09:34:10.227Z,44.43
2022-08-04T09:36:48.338Z,45.13
2022-08-04T09:39:27.644Z,42.28
2022-08-04T09:42:14.614Z,43.90
2022-08-04T09:45:05.704Z,45.67
2022-08-04T09:47:48.045Z,45.66
2022-08-04T09:50:30.611Z,44.29
2022-08-04T09:53:19.602Z,46.04
2022-08-04T09:55:54.392Z,45.35
2022-08-04T09:58:46.883Z,43.88
2022-08-04T10:01:22.857Z,45.53
2022-08-04T10:04:04.102Z,44.29
2022-08-04T10:07:08.960Z,44.10
2022-08-04T10:09:44.640Z,44.45
2022-08-04T10:12:24.242Z,44.23
2022-08-04T10:15:15.254Z,40.92
2022-08-04T10:18:06.301Z,42.81
2022-08-04T10:21:02.857Z,42.60
2022-08-04T10:23:55.828Z,42.53
2022-08-04T10:26:48.443Z,40.64
2022-08-04T10:29:24.908Z,41.28
2022-08-04T10:32:01.025Z,41.31
2022-08-04T10:34:32.518Z,39.15
2022-08-04T10:37:22.891Z,41.06
2022-08-04T10:40:45.264Z,40.11
2022-08-04T10:43:22.731Z,39.88
2022-08-04T10:46:05.628Z,40.54
2022-08-04T10:48:51.632Z,40.47
2022-08-04T10:51:58.321Z,40.01
2022-08-04T10:54:37.654Z,40.29
2022-08-04T10:57:12.174Z,39.76
2022-08-04T11:00:05.284Z,40.09
2022-08-04T11:02:45.237Z,35.39
2022-08-04T11:05:28.612Z,38.33
2022-08-04T11:08:07.574Z,36.97
2022-08-04T11:10:42.462Z,37.15
2022-08-04T11:13:21.894Z,35.44
2022-08-04T11:16:00.698Z,36.16
2022-08-04T11:18:55.643Z,37.83
2022-08-04T11:21:29.153Z,37.53
2022-08-04T11:24:01.387Z,38.17
2022-08-04T11:26:38.082Z,37.26
2022-08-04T11:29:12.588Z,38.42
2022-08-04T11:31:47.255Z,37.09
2022-08-04T11:34:25.625Z,38.36
2022-08-04T11:37:19.054Z,36.74
2022-08-04T11:39:50.749Z,37.54
2022-08-04T11:42:31.540Z,37.54
2022-08-04T11:45:15.843Z,36.22
2022-08-04T11:48:01.151Z,37.37
2022-08-04T11:50:28.031Z,37.56
2022-08-04T11:52:57.627Z,37.39
2022-08-04T11:55:27.317Z,35.57
2022-08-04T11:57:55.061Z,34.17
2022-08-04T12:00:22.522Z,32.58
2022-08-04T12:03:14.449Z,36.07
2022-08-04T12:06:07.286Z,35.99
2022-08-04T12:08:50.537Z,35.83
2022-08-04T12:11:39.352Z,35.85
2022-08-04T12:14:40.254Z,35.94
2022-08-04T12:17:08.797Z,35.85
2022-08-04T12:20:03.263Z,35.10
2022-08-04T12:22:36.257Z,35.69
2022-08-04T12:25:07.928Z,35.65
2022-08-04T12:27:43.003Z,33.08
2022-08-04T12:30:57.920Z,31.04
2022-08-04T12:33:17.911Z,34.19
2022-08-04T12:35:58.153Z,36.19
2022-08-04T12:38:45.306Z,35.85
2022-08-04T12:41:14.508Z,35.41
2022-08-04T12:43:42.538Z,35.17
2022-08-04T12:46:10.972Z,30.74
2022-08-04T12:48:39.616Z,35.25
2022-08-04T12:52:06.237Z,32.17
2022-08-04T12:53:59.233Z,35.47
2022-08-04T12:56:27.983Z,35.60
2022-08-04T12:59:02.310Z,32.50
2022-08-04T13:02:08.199Z,35.83
2022-08-04T13:04:28.840Z,35.85
2022-08-04T13:07:10.351Z,35.84
2022-08-04T13:09:38.362Z,33.32
2022-08-04T13:12:13.009Z,34.64
2022-08-04T13:14:44.281Z,32.44
2022-08-04T13:17:22.689Z,35.10
2022-08-04T13:19:57.148Z,34.46
2022-08-04T13:22:28.905Z,35.78
2022-08-04T13:26:40.399Z,35.92
2022-08-04T13:30:24.443Z,35.48
2022-08-04T13:30:34.869Z,35.56
2022-08-04T13:33:06.389Z,36.71
2022-08-04T13:35:55.459Z,34.94
2022-08-04T13:38:24.355Z,34.42
2022-08-04T13:40:54.027Z,36.43
2022-08-04T13:44:16.686Z,36.54
2022-08-04T13:46:27.668Z,36.55
2022-08-04T13:49:23.658Z,33.00
2022-08-04T13:51:59.031Z,34.83
2022-08-04T13:54:45.577Z,36.20
2022-08-04T13:57:24.474Z,36.38
2022-08-04T13:59:55.735Z,34.67
2022-08-04T14:02:35.209Z,32.99
2022-08-04T14:05:27.409Z,36.58
2022-08-04T14:08:13.181Z,34.14
2022-08-04T14:10:40.767Z,35.98
2022-08-04T14:13:08.350Z,34.14
2022-08-04T14:16:00.961Z,35.85
2022-08-04T14:18:32.686Z,36.05
2022-08-04T14:21:11.820Z,36.01
2022-08-04T14:23:48.335Z,35.85
2022-08-04T14:26:33.836Z,34.58
2022-08-04T14:29:27.376Z,34.96
2022-08-04T14:32:10.441Z,33.83
2022-08-04T14:34:45.052Z,33.28
2022-08-04T14:37:20.710Z,34.26
2022-08-04T14:40:17.786Z,35.04
2022-08-04T14:42:54.849Z,34.90
2022-08-04T14:45:54.739Z,34.66
2022-08-04T14:48:25.363Z,32.80
2022-08-04T14:50:54.661Z,33.28
2022-08-04T14:53:31.242Z,29.34
2022-08-04T14:56:10.043Z,34.30
2022-08-04T14:58:59.183Z,30.67
2022-08-04T15:01:27.737Z,33.68
2022-08-04T15:03:58.216Z,29.11
2022-08-04T15:06:27.825Z,31.68
2022-08-04T15:09:06.187Z,28.46
2022-08-04T15:11:38.938Z,29.14
2022-08-04T15:14:18.526Z,31.32
2022-08-04T15:16:59.607Z,30.21
2022-08-04T15:19:27.369Z,29.61
2022-08-04T15:21:56.114Z,30.96
2022-08-04T15:24:23.331Z,29.65
2022-08-04T15:26:52.460Z,32.69
2022-08-04T15:29:24.178Z,27.53
2022-08-04T15:32:04.342Z,32.71
2022-08-04T15:34:52.762Z,31.32
2022-08-04T15:37:39.544Z,32.43
2022-08-04T15:40:17.300Z,32.25
2022-08-04T15:43:18.472Z,32.00
2022-08-04T15:48:42.163Z,31.41
2022-08-04T15:51:20.324Z,30.14
2022-08-04T15:54:02.728Z,31.57
2022-08-04T15:56:48.393Z,31.58
2022-08-04T16:00:02.974Z,29.58
2022-08-04T16:02:43.848Z,29.54
2022-08-04T16:05:17.604Z,31.36
2022-08-04T16:07:56.842Z,31.25
2022-08-04T16:10:30.501Z,30.99
2022-08-04T16:12:59.907Z,30.82
2022-08-04T16:15:44.233Z,30.67
2022-08-04T16:18:25.568Z,29.65
2022-08-04T16:20:59.199Z,30.39
2022-08-04T16:23:55.014Z,30.18
2022-08-04T16:26:37.974Z,30.08
2022-08-04T16:29:23.942Z,29.98
2022-08-04T16:32:07.129Z,29.86
2022-08-04T16:34:50.115Z,27.76
2022-08-04T16:37:26.591Z,27.73
2022-08-04T16:40:34.634Z,28.50
2022-08-04T16:43:09.811Z,29.63
2022-08-04T16:45:54.501Z,28.46
2022-08-04T16:48:27.854Z,28.35
2022-08-04T16:51:06.986Z,27.82
2022-08-04T16:53:57.727Z,26.79
2022-08-04T16:56:35.569Z,24.93
2022-08-04T16:59:10.421Z,29.97
2022-08-04T17:01:46.779Z,28.76
2022-08-04T17:04:14.911Z,26.95
2022-08-04T17:06:43.400Z,29.63
2022-08-04T17:09:14.251Z,29.44
2022-08-04T17:11:44.424Z,23.84
2022-08-04T17:14:11.971Z,29.17
2022-08-04T17:16:42.748Z,27.62
2022-08-04T17:19:25.179Z,27.83
2022-08-04T17:22:03.025Z,29.62
2022-08-04T17:24:38.093Z,29.34
2022-08-04T17:28:10.898Z,30.12
2022-08-04T17:29:57.293Z,25.73
2022-08-04T17:32:26.646Z,27.48
2022-08-04T17:34:58.812Z,29.35
2022-08-04T17:37:38.910Z,27.62
2022-08-04T17:40:26.069Z,27.66
2022-08-04T17:44:01.476Z,29.30
2022-08-04T17:46:28.517Z,30.03
2022-08-04T17:49:12.087Z,28.03
2022-08-04T17:52:01.635Z,29.80
2022-08-04T17:54:38.976Z,29.04
2022-08-04T17:57:19.680Z,29.26
2022-08-04T17:59:57.504Z,28.18
2022-08-04T18:02:34.503Z,27.67
2022-08-04T18:05:12.286Z,29.83
2022-08-04T18:08:42.944Z,29.31
2022-08-04T18:13:42.333Z,25.14
2022-08-04T18:16:22.745Z,27.69
2022-08-04T18:19:18.705Z,28.26
2022-08-04T18:22:00.236Z,24.93
2022-08-04T18:24:35.328Z,26.89
2022-08-04T18:27:19.012Z,28.87
2022-08-04T18:29:56.422Z,28.88
2022-08-04T18:32:35.012Z,28.86
2022-08-04T18:35:05.765Z,28.78
2022-08-04T18:38:06.273Z,27.42
2022-08-04T18:40:30.271Z,26.19
2022-08-04T18:43:03.660Z,26.26
2022-08-04T18:45:35.350Z,25.72
2022-08-04T18:48:14.438Z,26.55
2022-08-04T18:51:11.206Z,27.93
2022-08-04T18:53:39.158Z,27.04
2022-08-04T18:56:30.064Z,26.96
2022-08-04T18:59:10.229Z,27.12
2022-08-04T19:02:17.278Z,27.08
2022-08-04T19:04:33.456Z,27.43
2022-08-04T19:08:01.343Z,25.31
2022-08-04T19:09:54.035Z,26.00
2022-08-04T19:12:28.444Z,26.01
2022-08-04T19:14:58.251Z,22.09
2022-08-04T19:17:53.830Z,26.93
2022-08-04T19:20:24.231Z,24.63
2022-08-04T19:24:27.076Z,22.76
2022-08-04T19:25:58.857Z,26.66
2022-08-04T19:28:29.979Z,25.40
2022-08-04T19:31:01.291Z,25.23
2022-08-04T19:33:28.549Z,26.34
2022-08-04T19:36:17.397Z,26.26
2022-08-04T19:38:44.990Z,26.16
2022-08-04T19:41:14.489Z,23.55
2022-08-04T19:43:43.926Z,25.56
2022-08-04T19:46:12.267Z,22.56
2022-08-04T19:48:40.457Z,25.97
2022-08-04T19:51:12.114Z,25.88
2022-08-04T19:54:03.998Z,25.40
2022-08-04T19:56:40.646Z,25.76
2022-08-04T19:59:11.394Z,25.06
2022-08-04T20:01:45.263Z,25.62
2022-08-04T20:04:14.315Z,24.12
2022-08-04T20:06:41.943Z,25.49
2022-08-04T20:09:24.750Z,23.54
2022-08-04T20:11:57.784Z,23.47
2022-08-04T20:14:31.427Z,24.96
2022-08-04T20:17:01.954Z,25.37
2022-08-04T20:19:30.313Z,25.15
2022-08-04T20:21:58.418Z,25.22
2022-08-04T20:24:38.072Z,23.34
2022-08-04T20:27:14.661Z,23.83
2022-08-04T20:29:49.086Z,25.06
2022-08-04T20:32:22.559Z,25.10
2022-08-04T20:34:54.845Z,24.66
2022-08-04T20:37:23.638Z,19.65
2022-08-04T20:39:55.824Z,23.87
2022-08-04T20:42:33.681Z,23.36
2022-08-04T20:45:03.139Z,21.08
2022-08-04T20:47:35.672Z,24.93
2022-08-04T20:50:05.700Z,22.50
2022-08-04T20:52:39.456Z,21.52
2022-08-04T20:55:14.538Z,22.44
2022-08-04T20:57:48.393Z,23.47
2022-08-04T21:00:29.855Z,21.93
2022-08-04T21:02:59.348Z,24.20
2022-08-04T21:05:27.145Z,20.86
2022-08-04T21:07:57.332Z,23.38
2022-08-04T21:10:25.770Z,19.94
2022-08-04T21:12:54.424Z,21.84
2022-08-04T21:15:25.501Z,22.08
2022-08-04T21:20:43.188Z,24.55
2022-08-04T21:23:11.386Z,23.75
2022-08-04T21:25:43.545Z,24.55
2022-08-04T21:28:11.826Z,24.52
2022-08-04T21:30:53.932Z,22.72
2022-08-04T21:33:23.928Z,24.25
2022-08-04T21:35:54.317Z,24.47
2022-08-04T21:38:27.926Z,24.40
2022-08-04T21:41:01.484Z,23.40
2022-08-04T21:43:42.444Z,24.28
2022-08-04T21:46:09.956Z,24.31
2022-08-04T21:48:39.623Z,23.31
2022-08-04T21:51:58.610Z,24.15
2022-08-04T21:54:24.064Z,23.27
2022-08-04T21:56:53.941Z,24.19
2022-08-04T21:59:23.654Z,22.99
2022-08-04T22:01:57.860Z,23.48
2022-08-04T22:04:29.366Z,24.35
2022-08-04T22:06:56.440Z,23.36
2022-08-04T22:09:23.383Z,24.34
2022-08-04T22:11:51.741Z,22.35
2022-08-04T22:14:27.471Z,24.27
2022-08-04T22:16:59.848Z,21.77
2022-08-04T22:19:40.658Z,23.16
2022-08-04T22:22:25.496Z,24.42
2022-08-04T22:24:58.635Z,20.25
2022-08-04T22:27:47.718Z,23.12
2022-08-04T22:30:17.144Z,22.37
2022-08-04T22:32:47.251Z,24.22
2022-08-04T22:35:36.313Z,21.25
2022-08-04T22:38:06.537Z,24.06
2022-08-04T22:40:56.452Z,23.98
2022-08-04T22:43:31.709Z,20.32
2022-08-04T22:46:06.510Z,22.75
2022-08-04T22:48:35.677Z,19.86
2022-08-04T22:51:04.501Z,22.24
2022-08-04T22:53:33.498Z,20.91
2022-08-04T22:56:09.833Z,17.65
2022-08-04T22:58:51.111Z,22.38
2022-08-04T23:01:18.779Z,21.75
2022-08-04T23:03:50.993Z,22.29
2022-08-04T23:06:28.968Z,19.03
2022-08-04T23:08:57.550Z,17.93
2022-08-04T23:11:24.844Z,22.19
2022-08-04T23:14:02.795Z,17.18
2022-08-04T23:16:30.174Z,20.30
2022-08-04T23:18:57.206Z,22.40
2022-08-04T23:21:24.931Z,18.64
2022-08-04T23:24:01.990Z,19.38
2022-08-04T23:26:31.385Z,20.54
2022-08-04T23:28:58.590Z,19.06
2022-08-04T23:31:36.639Z,19.54
2022-08-04T23:34:12.337Z,21.91
2022-08-04T23:36:40.017Z,20.56
2022-08-04T23:39:07.339Z,20.79
2022-08-04T23:41:53.689Z,21.33
2022-08-04T23:44:25.044Z,21.21
2022-08-04T23:47:03.844Z,21.25
2022-08-04T23:49:44.271Z,19.80
2022-08-04T23:52:23.289Z,19.16
2022-08-04T23:54:55.004Z,21.90
2022-08-04T23:57:22.389Z,19.48
2022-08-04T23:59:54.252Z,16.16
